createdAt,value
2018-04-06T03:30:43.727Z,0.50
2018-04-06T03:33:11.371Z,0.50
2018-04-06T03:35:39.004Z,0.40
2018-04-06T03:38:06.672Z,0.40
2018-04-06T03:40:35.061Z,0.30
2018-04-06T03:43:03.453Z,0.20
2018-04-06T03:45:31.116Z,0.20
2018-04-06T03:47:58.739Z,0.40
2018-04-06T03:50:26.365Z,0.30
2018-04-06T03:52:54.007Z,0.20
2018-04-06T03:55:21.624Z,0.20
2018-04-06T03:57:50.106Z,0.10
2018-04-06T04:00:17.725Z,0.00
2018-04-06T04:02:45.356Z,-0.10
2018-04-06T04:05:13.046Z,0.00
2018-04-06T04:07:40.667Z,0.20
2018-04-06T04:10:08.298Z,0.20
2018-04-06T04:12:35.945Z,0.20
2018-04-06T04:15:03.577Z,0.10
2018-04-06T04:17:31.227Z,-0.10
2018-04-06T04:19:58.856Z,-0.10
2018-04-06T04:22:27.297Z,-0.20
2018-04-06T04:24:54.936Z,-0.20
2018-04-06T04:27:22.564Z,-0.20
2018-04-06T04:29:50.232Z,-0.10
2018-04-06T04:32:17.864Z,0.00
2018-04-06T04:34:46.262Z,-0.10
2018-04-06T04:37:13.956Z,-0.10
2018-04-06T04:39:41.626Z,-0.20
2018-04-06T04:42:09.260Z,-0.20
2018-04-06T04:44:36.916Z,-0.20
2018-04-06T04:47:04.556Z,-0.10
2018-04-06T04:49:32.972Z,0.10
2018-04-06T04:52:00.601Z,0.10
2018-04-06T04:54:28.293Z,-0.10
2018-04-06T04:56:55.919Z,-0.20
2018-04-06T04:59:24.316Z,-0.10
2018-04-06T05:01:51.976Z,-0.10
2018-04-06T05:04:19.604Z,-0.10
2018-04-06T05:06:48.005Z,-0.10
2018-04-06T05:09:15.668Z,-0.10
2018-04-06T05:11:43.287Z,0.00
2018-04-06T05:14:10.955Z,0.10
2018-04-06T05:16:38.605Z,0.10
2018-04-06T05:19:06.224Z,0.00
2018-04-06T05:21:33.875Z,0.00
2018-04-06T05:24:01.504Z,0.10
2018-04-06T05:26:29.898Z,0.30
2018-04-06T05:28:57.656Z,0.30
2018-04-06T05:31:26.048Z,0.30
2018-04-06T05:33:53.685Z,0.30
2018-04-06T05:36:22.119Z,-0.20
2018-04-06T05:38:49.779Z,-0.20
2018-04-06T05:41:17.411Z,-0.30
2018-04-06T05:43:45.065Z,-0.20
2018-04-06T05:46:12.699Z,0.10
2018-04-06T05:48:41.119Z,0.20
2018-04-06T05:51:08.748Z,0.20
2018-04-06T05:53:37.138Z,0.40
2018-04-06T05:56:04.793Z,0.30
2018-04-06T05:58:32.421Z,0.40
2018-04-06T06:01:00.051Z,0.50
2018-04-06T06:03:27.742Z,0.70
2018-04-06T06:05:55.372Z,0.80
2018-04-06T06:08:23.001Z,1.00
2018-04-06T06:10:50.657Z,0.90
2018-04-06T06:13:18.309Z,1.00
2018-04-06T06:15:46.032Z,1.10
2018-04-06T06:18:13.722Z,1.30
2018-04-06T06:20:42.980Z,1.60
2018-04-06T06:23:10.623Z,1.60
2018-04-06T06:25:38.296Z,1.60
2018-04-06T06:28:05.944Z,1.80
2018-04-06T06:30:33.584Z,1.90
2018-04-06T06:33:01.247Z,2.00
2018-04-06T06:35:28.877Z,2.10
2018-04-06T06:37:57.277Z,2.50
2018-04-06T06:40:24.928Z,2.50
2018-04-06T06:42:53.327Z,2.60
2018-04-06T06:45:20.980Z,2.60
2018-04-06T06:47:48.612Z,2.80
2018-04-06T06:50:17.049Z,2.90
2018-04-06T06:52:44.672Z,2.90
2018-04-06T06:55:12.305Z,3.10
2018-04-06T06:57:40.732Z,3.40
2018-04-06T07:00:08.369Z,3.30
2018-04-06T07:02:36.044Z,3.40
2018-04-06T07:05:03.676Z,3.50
2018-04-06T07:07:32.073Z,3.80
2018-04-06T07:09:59.748Z,3.70
2018-04-06T07:12:27.393Z,3.80
2018-04-06T07:14:55.016Z,3.80
2018-04-06T07:17:22.682Z,3.80
2018-04-06T07:19:50.310Z,4.00
2018-04-06T07:22:17.936Z,4.30
2018-04-06T07:24:45.591Z,4.30
2018-04-06T07:27:13.220Z,4.10
2018-04-06T07:29:40.857Z,4.00
2018-04-06T07:32:08.525Z,3.90
2018-04-06T07:34:36.152Z,3.80
2018-04-06T07:37:03.772Z,4.20
2018-04-06T07:39:32.184Z,5.40
2018-04-06T07:41:59.819Z,5.40
2018-04-06T07:44:28.334Z,5.60
2018-04-06T07:46:55.905Z,5.60
2018-04-06T07:49:23.532Z,5.60
2018-04-06T07:51:51.197Z,5.80
2018-04-06T07:54:18.820Z,5.50
2018-04-06T07:56:46.448Z,5.30
2018-04-06T07:59:14.101Z,5.60
2018-04-06T08:01:41.726Z,5.90
2018-04-06T08:04:09.396Z,6.10
2018-04-06T08:06:37.025Z,5.20
2018-04-06T08:09:06.377Z,4.80
2018-04-06T08:11:34.027Z,4.80
2018-04-06T08:14:01.663Z,5.20
2018-04-06T08:16:29.312Z,4.90
2018-04-06T08:18:57.702Z,5.30
2018-04-06T08:21:25.364Z,5.30
2018-04-06T08:23:52.992Z,5.60
2018-04-06T08:26:20.664Z,5.80
2018-04-06T08:28:48.309Z,5.80
2018-04-06T08:31:15.961Z,5.80
2018-04-06T08:33:43.629Z,5.80
2018-04-06T08:36:11.263Z,5.80
2018-04-06T08:38:39.029Z,6.00
2018-04-06T08:41:06.679Z,5.90
2018-04-06T08:43:34.316Z,5.60
2018-04-06T08:46:01.992Z,5.80
2018-04-06T08:48:29.629Z,5.90
2018-04-06T08:50:57.261Z,5.90
2018-04-06T08:53:25.035Z,5.80
2018-04-06T08:55:53.430Z,6.00
2018-04-06T08:58:21.056Z,6.00
2018-04-06T09:00:48.713Z,6.30
2018-04-06T09:03:16.343Z,6.60
2018-04-06T09:05:43.964Z,6.80
2018-04-06T09:08:12.372Z,6.70
2018-04-06T09:10:39.996Z,6.70
2018-04-06T09:13:08.417Z,6.90
2018-04-06T09:15:36.037Z,6.90
2018-04-06T09:18:04.475Z,7.00
2018-04-06T09:20:32.136Z,7.00
2018-04-06T09:22:59.791Z,6.80
2018-04-06T09:25:27.420Z,6.80
2018-04-06T09:27:55.084Z,6.50
2018-04-06T09:30:22.711Z,6.30
2018-04-06T09:32:51.104Z,6.60
2018-04-06T09:35:18.753Z,6.60
2018-04-06T09:37:47.196Z,7.20
2018-04-06T09:40:15.593Z,7.50
2018-04-06T09:42:43.220Z,7.40
2018-04-06T09:45:11.645Z,7.40
2018-04-06T09:47:40.039Z,7.30
2018-04-06T09:50:07.670Z,7.30
2018-04-06T09:52:35.320Z,7.30
2018-04-06T09:55:02.945Z,7.40
2018-04-06T09:57:30.628Z,7.40
2018-04-06T09:59:58.260Z,7.40
2018-04-06T10:02:25.884Z,7.50
2018-04-06T10:04:54.314Z,7.30
2018-04-06T10:07:21.942Z,7.30
2018-04-06T10:09:49.570Z,7.50
2018-04-06T10:12:18.016Z,7.60
2018-04-06T10:14:45.648Z,7.60
2018-04-06T10:17:13.273Z,7.50
2018-04-06T10:19:41.701Z,7.50
2018-04-06T10:22:09.339Z,7.50
2018-04-06T10:24:36.964Z,7.50
2018-04-06T10:27:04.617Z,7.70
2018-04-06T10:29:32.283Z,7.80
2018-04-06T10:31:59.908Z,7.80
2018-04-06T10:34:27.532Z,7.70
2018-04-06T10:36:55.208Z,7.80
2018-04-06T10:39:22.836Z,7.90
2018-04-06T10:41:51.220Z,7.90
2018-04-06T10:44:19.656Z,8.00
2018-04-06T10:46:48.110Z,7.80
2018-04-06T10:49:15.712Z,7.70
2018-04-06T10:51:43.378Z,7.50
2018-04-06T10:54:11.013Z,7.50
2018-04-06T10:56:38.640Z,7.80
2018-04-06T10:59:06.411Z,8.10
2018-04-06T11:01:34.036Z,8.10
2018-04-06T11:04:02.430Z,8.20
2018-04-06T11:06:30.088Z,8.20
2018-04-06T11:08:57.869Z,8.20
2018-04-06T11:11:25.492Z,8.20
2018-04-06T11:13:53.888Z,8.10
2018-04-06T11:16:21.601Z,8.10
2018-04-06T11:18:49.233Z,8.20
2018-04-06T11:21:16.867Z,8.10
2018-04-06T11:23:45.275Z,8.30
2018-04-06T11:26:12.906Z,8.30
2018-04-06T11:28:40.572Z,8.40
2018-04-06T11:31:08.196Z,8.30
2018-04-06T11:33:35.824Z,8.30
2018-04-06T11:36:03.496Z,8.40
2018-04-06T11:38:31.956Z,8.50
2018-04-06T11:40:59.588Z,8.60
2018-04-06T11:43:27.252Z,8.70
2018-04-06T11:45:54.875Z,8.80
2018-04-06T11:48:22.505Z,8.70
2018-04-06T11:50:50.147Z,8.90
2018-04-06T11:53:17.792Z,8.80
2018-04-06T11:55:45.465Z,8.80
2018-04-06T11:58:13.092Z,8.70
2018-04-06T12:00:41.485Z,8.80
2018-04-06T12:03:09.147Z,8.80
2018-04-06T12:05:36.777Z,8.80
2018-04-06T12:08:04.407Z,8.80
2018-04-06T12:10:32.074Z,8.70
2018-04-06T12:12:59.705Z,8.70
2018-04-06T12:15:27.323Z,8.70
2018-04-06T12:17:54.996Z,8.70
2018-04-06T12:20:23.393Z,8.90
2018-04-06T12:22:51.012Z,8.80
2018-04-06T12:25:18.666Z,8.90
2018-04-06T12:27:46.341Z,9.20
2018-04-06T12:30:13.966Z,9.40
2018-04-06T12:32:41.598Z,9.60
2018-04-06T12:35:09.281Z,9.70
2018-04-06T12:37:36.959Z,10.00
2018-04-06T12:40:04.844Z,9.70
2018-04-06T12:42:32.504Z,9.70
2018-04-06T12:45:00.130Z,9.50
2018-04-06T12:47:27.756Z,9.40
2018-04-06T12:49:55.402Z,9.30
2018-04-06T12:52:23.797Z,9.20
2018-04-06T12:54:51.424Z,9.20
2018-04-06T12:57:19.100Z,9.40
2018-04-06T12:59:47.504Z,9.30
2018-04-06T13:02:15.132Z,9.30
2018-04-06T13:04:43.556Z,9.40
2018-04-06T13:07:11.172Z,9.30
2018-04-06T13:09:39.621Z,10.10
2018-04-06T13:12:07.256Z,10.10
2018-04-06T13:14:34.884Z,10.40
2018-04-06T13:17:02.597Z,10.40
2018-04-06T13:19:30.232Z,10.00
2018-04-06T13:21:57.867Z,9.80
2018-04-06T13:24:25.538Z,10.10
2018-04-06T13:26:53.173Z,10.20
2018-04-06T13:29:21.569Z,10.90
2018-04-06T13:31:49.228Z,10.90
2018-04-06T13:34:16.861Z,10.70
2018-04-06T13:36:44.537Z,10.60
2018-04-06T13:39:12.932Z,10.10
2018-04-06T13:41:40.562Z,10.10
2018-04-06T13:44:08.220Z,10.60
2018-04-06T13:46:35.941Z,10.90
2018-04-06T13:49:03.552Z,11.10
2018-04-06T13:51:31.948Z,10.60
2018-04-06T13:53:59.621Z,10.60
2018-04-06T13:56:27.249Z,10.70
2018-04-06T13:58:55.645Z,10.80
2018-04-06T14:01:23.301Z,10.80
2018-04-06T14:03:51.705Z,10.30
2018-04-06T14:06:19.337Z,10.20
2018-04-06T14:08:47.756Z,9.90
2018-04-06T14:11:15.381Z,9.80
2018-04-06T14:13:43.035Z,9.80
2018-04-06T14:16:11.433Z,10.00
2018-04-06T14:18:39.113Z,10.00
2018-04-06T14:21:06.749Z,10.20
2018-04-06T14:23:34.377Z,10.00
2018-04-06T14:26:02.816Z,10.20
2018-04-06T14:28:30.446Z,10.20
2018-04-06T14:30:58.075Z,10.10
2018-04-06T14:33:26.527Z,9.70
2018-04-06T14:35:54.156Z,9.70
2018-04-06T14:38:21.793Z,9.60
2018-04-06T14:40:50.228Z,9.70
2018-04-06T14:43:17.859Z,9.60
2018-04-06T14:45:45.500Z,9.70
2018-04-06T14:48:13.158Z,9.70
2018-04-06T14:50:40.783Z,9.70
2018-04-06T14:53:08.428Z,9.70
2018-04-06T14:55:36.096Z,9.70
2018-04-06T14:58:03.720Z,9.60
2018-04-06T15:00:31.353Z,9.50
2018-04-06T15:02:59.027Z,9.60
2018-04-06T15:05:26.664Z,10.00
2018-04-06T15:07:55.089Z,10.80
2018-04-06T15:10:22.740Z,10.80
2018-04-06T15:12:50.377Z,10.50
2018-04-06T15:15:18.071Z,10.20
2018-04-06T15:17:45.705Z,10.30
2018-04-06T15:20:13.357Z,10.40
2018-04-06T15:22:41.029Z,10.40
2018-04-06T15:25:08.668Z,10.50
2018-04-06T15:27:37.060Z,11.30
2018-04-06T15:30:04.970Z,11.30
2018-04-06T15:32:32.604Z,11.40
2018-04-06T15:35:00.231Z,11.40
2018-04-06T15:37:28.658Z,10.90
2018-04-06T15:39:56.292Z,10.90
2018-04-06T15:42:24.065Z,10.70
2018-04-06T15:44:51.729Z,10.70
2018-04-06T15:47:19.361Z,10.80
2018-04-06T15:49:47.043Z,10.80
2018-04-06T15:52:14.671Z,11.10
2018-04-06T15:54:43.063Z,11.30
2018-04-06T15:57:10.713Z,11.30
2018-04-06T15:59:39.112Z,11.90
2018-04-06T16:02:06.769Z,11.90
2018-04-06T16:04:34.431Z,12.30
2018-04-06T16:07:02.061Z,12.40
2018-04-06T16:09:30.501Z,12.40
2018-04-06T16:11:58.135Z,12.40
2018-04-06T16:14:25.768Z,12.70
2018-04-06T16:16:54.200Z,13.50
2018-04-06T16:19:21.840Z,13.50
2018-04-06T16:21:49.481Z,13.70
2018-04-06T16:24:17.140Z,14.00
2018-04-06T16:26:44.777Z,14.10
2018-04-06T16:29:13.216Z,13.60
2018-04-06T16:31:40.884Z,13.50
2018-04-06T16:34:08.516Z,12.90
2018-04-06T16:36:36.143Z,12.20
2018-04-06T16:39:04.571Z,11.20
2018-04-06T16:41:32.229Z,11.20
2018-04-06T16:43:59.881Z,10.80
2018-04-06T16:46:27.512Z,10.50
2018-04-06T16:48:55.942Z,10.20
2018-04-06T16:51:23.572Z,10.10
2018-04-06T16:53:51.252Z,10.10
2018-04-06T16:56:18.889Z,10.10
2018-04-06T16:58:46.557Z,10.00
2018-04-06T17:01:14.229Z,10.00
2018-04-06T17:03:41.870Z,10.10
2018-04-06T17:06:09.505Z,10.30
2018-04-06T17:08:37.942Z,10.30
2018-04-06T17:11:05.594Z,10.30
2018-04-06T17:13:33.220Z,10.00
2018-04-06T17:16:00.889Z,9.70
2018-04-06T17:18:28.520Z,9.50
2018-04-06T17:20:56.915Z,9.30
2018-04-06T17:23:24.556Z,9.20
2018-04-06T17:25:52.940Z,9.00
2018-04-06T17:28:21.368Z,8.90
2018-04-06T17:30:48.993Z,8.90
2018-04-06T17:33:16.625Z,8.80
2018-04-06T17:35:45.059Z,8.70
2018-04-06T17:38:12.685Z,8.70
2018-04-06T17:40:41.077Z,8.70
2018-04-06T17:43:08.728Z,8.60
2018-04-06T17:45:36.357Z,8.60
2018-04-06T17:48:03.992Z,8.40
2018-04-06T17:50:31.642Z,8.40
2018-04-06T17:52:59.319Z,8.30
2018-04-06T17:55:26.944Z,8.10
2018-04-06T17:57:54.604Z,8.00
2018-04-06T18:00:22.281Z,8.00
2018-04-06T18:02:49.920Z,7.90
2018-04-06T18:05:18.830Z,7.90
2018-04-06T18:07:46.499Z,8.00
2018-04-06T18:10:14.900Z,7.90
2018-04-06T18:12:42.537Z,7.80
2018-04-06T18:15:10.189Z,7.90
2018-04-06T18:17:37.820Z,7.80
2018-04-06T18:20:06.633Z,7.80
2018-04-06T18:22:34.292Z,7.80
2018-04-06T18:25:01.964Z,7.70
2018-04-06T18:27:29.616Z,7.60
2018-04-06T18:29:57.240Z,7.60
2018-04-06T18:32:24.923Z,7.50
2018-04-06T18:34:52.552Z,7.50
2018-04-06T18:37:20.951Z,7.40
2018-04-06T18:39:48.644Z,7.40
2018-04-06T18:42:16.310Z,7.30
2018-04-06T18:44:43.968Z,7.30
2018-04-06T18:47:11.632Z,7.20
2018-04-06T18:49:40.519Z,7.20
2018-04-06T18:52:11.286Z,7.00
2018-04-06T18:54:39.693Z,6.90
2018-04-06T18:57:07.334Z,6.90
2018-04-06T18:59:35.865Z,6.90
2018-04-06T19:02:03.491Z,6.80
2018-04-06T19:04:31.119Z,6.90
2018-04-06T19:06:58.772Z,7.00
2018-04-06T19:09:26.406Z,7.00
2018-04-06T19:11:54.057Z,7.00
2018-04-06T19:14:21.689Z,6.80
2018-04-06T19:16:49.312Z,6.70
2018-04-06T19:19:16.976Z,6.70
2018-04-06T19:21:44.606Z,6.70
2018-04-06T19:24:12.239Z,6.70
2018-04-06T19:26:39.926Z,6.60
2018-04-06T19:29:07.565Z,6.30
2018-04-06T19:31:35.196Z,5.80
2018-04-06T19:34:03.608Z,5.50
2018-04-06T19:36:31.280Z,5.50
2018-04-06T19:38:58.909Z,5.70
2018-04-06T19:41:26.563Z,5.70
2018-04-06T19:43:54.211Z,5.60
2018-04-06T19:46:22.628Z,5.60
2018-04-06T19:48:50.261Z,5.50
2018-04-06T19:51:18.689Z,5.60
2018-04-06T19:53:46.352Z,5.60
2018-04-06T19:56:13.992Z,5.80
2018-04-06T19:58:41.620Z,6.00
2018-04-06T20:01:11.324Z,6.20
2018-04-06T20:03:39.072Z,6.20
2018-04-06T20:06:06.720Z,6.20
2018-04-06T20:08:34.372Z,6.30
2018-04-06T20:11:02.003Z,6.40
2018-04-06T20:13:29.632Z,6.50
2018-04-06T20:15:57.281Z,6.50
2018-04-06T20:18:25.673Z,6.20
2018-04-06T20:20:53.344Z,6.20
2018-04-06T20:23:20.976Z,6.30
2018-04-06T20:25:49.593Z,6.40
2018-04-06T20:28:17.271Z,6.40
2018-04-06T20:30:45.684Z,6.30
2018-04-06T20:33:13.312Z,6.30
2018-04-06T20:35:40.960Z,6.30
2018-04-06T20:38:08.587Z,6.40
2018-04-06T20:40:36.991Z,6.50
2018-04-06T20:43:04.668Z,6.50
2018-04-06T20:45:32.292Z,6.60
2018-04-06T20:47:59.927Z,6.60
2018-04-06T20:50:27.607Z,6.70
2018-04-06T20:52:56.000Z,6.70
2018-04-06T20:55:23.632Z,6.60
2018-04-06T20:57:52.169Z,6.60
2018-04-06T21:00:19.796Z,6.60
2018-04-06T21:02:47.430Z,6.50
2018-04-06T21:05:15.120Z,6.50
2018-04-06T21:07:42.744Z,6.40
2018-04-06T21:10:10.372Z,6.40
2018-04-06T21:12:38.021Z,6.40
2018-04-06T21:15:05.661Z,6.10
2018-04-06T21:17:33.336Z,6.00
2018-04-06T21:20:00.969Z,5.90
2018-04-06T21:22:29.360Z,5.90
2018-04-06T21:24:57.031Z,5.90
2018-04-06T21:27:24.656Z,5.90
2018-04-06T21:29:53.199Z,5.80
2018-04-06T21:32:20.893Z,5.70
2018-04-06T21:34:48.524Z,5.60
2018-04-06T21:37:16.969Z,5.50
2018-04-06T21:39:44.601Z,5.50
2018-04-06T21:42:13.035Z,5.20
2018-04-06T21:44:40.722Z,5.20
2018-04-06T21:47:08.347Z,5.20
2018-04-06T21:49:35.973Z,5.30
2018-04-06T21:52:03.656Z,5.50
2018-04-06T21:54:31.288Z,5.60
2018-04-06T21:56:58.952Z,5.60
2018-04-06T21:59:27.373Z,5.60
2018-04-06T22:01:55.001Z,5.60
2018-04-06T22:04:22.648Z,5.70
2018-04-06T22:06:51.040Z,4.90
2018-04-06T22:09:18.668Z,4.90
2018-04-06T22:11:46.344Z,3.70
2018-04-06T22:14:14.736Z,2.40
2018-04-06T22:16:42.413Z,2.40
2018-04-06T22:19:10.044Z,2.30
2018-04-06T22:21:38.440Z,2.10
2018-04-06T22:24:06.104Z,2.00
2018-04-06T22:26:33.785Z,2.10
2018-04-06T22:29:01.407Z,2.00
